createdAt,value
2018-11-28T00:03:38.897Z,10.23
2018-11-28T00:08:23.691Z,11.20
2018-11-28T00:13:08.515Z,9.93
2018-11-28T00:17:53.342Z,9.93
2018-11-28T00:22:38.226Z,9.83
2018-11-28T00:27:23.109Z,10.70
2018-11-28T00:32:08.233Z,10.23
2018-11-28T00:36:53.088Z,13.00
2018-11-28T00:41:37.927Z,11.53
2018-11-28T00:46:22.756Z,9.93
2018-11-28T00:51:07.622Z,9.50
2018-11-28T00:55:52.508Z,11.23
2018-11-28T01:00:37.385Z,10.27
2018-11-28T01:05:22.236Z,11.03
2018-11-28T01:10:10.048Z,11.40
2018-11-28T01:14:54.889Z,8.10
2018-11-28T01:19:39.684Z,9.83
2018-11-28T01:24:24.463Z,10.93
2018-11-28T01:29:09.300Z,8.50
2018-11-28T01:33:54.125Z,7.43
2018-11-28T01:38:38.929Z,9.43
2018-11-28T01:43:23.823Z,9.33
2018-11-28T01:48:08.669Z,10.90
2018-11-28T01:52:53.530Z,13.03
2018-11-28T01:57:38.364Z,12.00
2018-11-28T02:02:23.281Z,15.17
2018-11-28T02:07:08.206Z,14.70
2018-11-28T02:11:53.037Z,10.43
2018-11-28T02:16:37.895Z,9.03
2018-11-28T02:21:22.735Z,9.57
2018-11-28T02:26:07.495Z,9.13
2018-11-28T02:30:52.356Z,10.43
2018-11-28T02:35:37.157Z,13.20
2018-11-28T02:40:22.015Z,11.20
2018-11-28T02:45:09.729Z,9.13
2018-11-28T02:49:54.480Z,8.67
2018-11-28T02:54:39.282Z,9.27
2018-11-28T02:59:24.079Z,20.07
2018-11-28T03:04:08.829Z,12.10
2018-11-28T03:08:53.670Z,12.43
2018-11-28T03:13:38.556Z,9.63
2018-11-28T03:18:23.888Z,13.20
2018-11-28T03:23:08.695Z,10.27
2018-11-28T03:27:53.505Z,9.70
2018-11-28T03:32:38.328Z,11.33
2018-11-28T03:37:23.132Z,8.27
2018-11-28T03:42:08.182Z,8.73
2018-11-28T03:46:53.069Z,9.43
2018-11-28T03:51:37.898Z,9.87
2018-11-28T03:56:22.615Z,12.73
2018-11-28T04:01:07.470Z,12.73
2018-11-28T04:05:52.347Z,8.90
2018-11-28T04:10:37.162Z,8.23
2018-11-28T04:15:22.169Z,8.63
2018-11-28T04:20:08.869Z,8.47
2018-11-28T04:24:53.650Z,10.27
2018-11-28T04:29:38.537Z,9.33
2018-11-28T04:34:23.321Z,14.53
2018-11-28T04:39:09.054Z,11.13
2018-11-28T04:43:53.888Z,12.83
2018-11-28T04:48:38.662Z,10.93
2018-11-28T04:53:23.527Z,13.40
2018-11-28T04:58:08.442Z,11.43
2018-11-28T05:02:55.041Z,13.90
2018-11-28T05:07:40.120Z,11.37
2018-11-28T05:12:25.007Z,12.20
2018-11-28T05:17:09.799Z,12.37
2018-11-28T05:21:54.593Z,14.53
2018-11-28T05:26:39.564Z,14.57
2018-11-28T05:31:24.422Z,15.57
2018-11-28T05:36:09.248Z,11.57
2018-11-28T05:40:54.054Z,12.73
2018-11-28T05:45:38.908Z,12.83
2018-11-28T05:50:23.845Z,11.07
2018-11-28T05:55:10.075Z,11.33
2018-11-28T05:59:54.944Z,12.30
2018-11-28T06:04:39.740Z,11.33
2018-11-28T06:09:24.573Z,10.03
2018-11-28T06:14:09.560Z,10.73
2018-11-28T06:18:54.431Z,13.83
2018-11-28T06:23:39.266Z,9.43
2018-11-28T06:28:24.086Z,12.07
2018-11-28T06:33:08.905Z,11.73
2018-11-28T06:37:53.731Z,9.33
2018-11-28T06:42:38.625Z,10.10
2018-11-28T06:47:23.404Z,12.07
2018-11-28T06:52:08.242Z,14.07
2018-11-28T06:56:53.045Z,14.57
2018-11-28T07:01:37.972Z,18.07
2018-11-28T07:06:22.793Z,17.80
2018-11-28T07:11:07.634Z,12.47
2018-11-28T07:15:52.442Z,15.53
2018-11-28T07:20:37.228Z,16.37
2018-11-28T07:25:22.106Z,16.57
2018-11-28T07:30:24.310Z,17.37
2018-11-28T07:35:09.754Z,16.50
2018-11-28T07:39:54.568Z,15.93
2018-11-28T07:44:39.379Z,18.63
2018-11-28T07:49:24.185Z,20.83
2018-11-28T07:54:09.048Z,17.63
2018-11-28T07:58:53.985Z,15.47
2018-11-28T08:03:38.811Z,12.67
2018-11-28T08:08:23.664Z,11.27
2018-11-28T08:13:08.915Z,10.37
2018-11-28T08:17:53.956Z,10.20
2018-11-28T08:22:38.988Z,10.60
2018-11-28T08:27:23.754Z,10.20
2018-11-28T08:32:08.624Z,8.53
2018-11-28T08:36:53.419Z,7.73
2018-11-28T08:41:38.273Z,7.53
2018-11-28T08:46:23.086Z,7.93
2018-11-28T08:51:07.937Z,7.83
2018-11-28T08:55:52.736Z,6.70
2018-11-28T09:00:37.550Z,6.67
2018-11-28T09:05:22.687Z,7.10
2018-11-28T09:10:17.663Z,4.97
2018-11-28T09:15:02.681Z,6.90
2018-11-28T09:19:47.516Z,5.50
2018-11-28T09:24:32.360Z,2.40
2018-11-28T09:29:17.123Z,6.07
2018-11-28T09:34:02.205Z,5.50
2018-11-28T09:38:47.149Z,4.60
2018-11-28T09:43:32.245Z,4.23
2018-11-28T09:48:17.060Z,5.23
2018-11-28T09:53:01.868Z,4.33
2018-11-28T09:57:46.641Z,1.90
2018-11-28T10:02:31.433Z,4.17
2018-11-28T10:07:16.422Z,6.63
2018-11-28T10:12:01.183Z,6.40
2018-11-28T10:16:46.575Z,7.23
2018-11-28T10:21:30.906Z,5.10
2018-11-28T10:26:15.722Z,3.30
2018-11-28T10:31:00.476Z,3.00
2018-11-28T10:35:46.576Z,3.40
2018-11-28T10:40:30.357Z,3.60
2018-11-28T10:45:16.407Z,4.33
2018-11-28T10:50:01.214Z,4.03
2018-11-28T10:54:46.057Z,2.77
2018-11-28T10:59:30.843Z,2.57
2018-11-28T11:04:16.387Z,2.30
2018-11-28T11:09:06.323Z,2.30
2018-11-28T11:13:56.111Z,1.93
2018-11-28T11:18:40.949Z,2.47
2018-11-28T11:23:25.930Z,2.30
2018-11-28T11:28:10.796Z,2.67
2018-11-28T11:32:55.740Z,2.40
2018-11-28T11:37:40.499Z,2.20
2018-11-28T11:42:25.498Z,2.37
2018-11-28T11:47:10.330Z,2.37
2018-11-28T11:51:55.218Z,2.43
2018-11-28T11:56:40.042Z,2.40
2018-11-28T12:01:24.975Z,2.30
2018-11-28T12:06:09.950Z,2.50
2018-11-28T12:10:54.974Z,2.20
2018-11-28T12:15:39.974Z,2.53
2018-11-28T12:20:28.814Z,3.00
2018-11-28T12:25:13.789Z,2.37
2018-11-28T12:29:58.756Z,2.97
2018-11-28T12:34:43.917Z,2.60
2018-11-28T12:39:28.913Z,3.10
2018-11-28T12:44:13.918Z,3.53
2018-11-28T12:48:59.177Z,1.70
2018-11-28T12:53:43.950Z,2.40
2018-11-28T12:58:28.985Z,2.40
2018-11-28T13:03:15.229Z,1.77
2018-11-28T13:08:00.085Z,1.60
2018-11-28T13:12:45.414Z,2.00
2018-11-28T13:17:30.383Z,1.97
2018-11-28T13:22:15.236Z,2.10
2018-11-28T13:27:00.126Z,2.17
2018-11-28T13:31:45.141Z,2.30
2018-11-28T13:36:30.041Z,3.40
2018-11-28T13:41:14.993Z,5.03
2018-11-28T13:45:59.956Z,5.67
2018-11-28T13:50:45.043Z,6.50
2018-11-28T13:55:38.245Z,6.73
2018-11-28T14:00:20.666Z,6.63
2018-11-28T14:05:07.759Z,7.03
2018-11-28T14:09:52.727Z,6.87
2018-11-28T14:14:37.690Z,8.07
2018-11-28T14:19:22.637Z,8.10
2018-11-28T14:24:07.491Z,8.40
2018-11-28T14:28:52.730Z,8.53
2018-11-28T14:33:37.895Z,8.87
2018-11-28T14:38:22.916Z,9.00
2018-11-28T14:43:08.128Z,8.57
2018-11-28T14:47:53.372Z,8.17
2018-11-28T14:52:38.208Z,9.37
2018-11-28T14:57:23.152Z,9.60
2018-11-28T15:02:08.122Z,10.13
2018-11-28T15:06:58.070Z,10.17
2018-11-28T15:11:43.922Z,10.40
2018-11-28T15:16:28.817Z,10.20
2018-11-28T15:21:13.712Z,10.30
2018-11-28T15:25:58.626Z,11.63
2018-11-28T15:30:43.623Z,12.80
2018-11-28T15:35:28.924Z,13.23
2018-11-28T15:40:13.936Z,12.00
2018-11-28T15:44:58.834Z,11.80
2018-11-28T15:49:43.716Z,11.10
2018-11-28T15:54:28.594Z,11.93
2018-11-28T15:59:13.540Z,12.13
2018-11-28T16:03:58.357Z,11.57
2018-11-28T16:08:43.274Z,11.60
2018-11-28T16:13:28.097Z,11.83
2018-11-28T16:18:13.361Z,10.00
2018-11-28T16:23:04.066Z,11.53
2018-11-28T16:27:43.263Z,12.20
2018-11-28T16:32:28.308Z,11.47
2018-11-28T16:37:13.234Z,10.80
2018-11-28T16:41:58.279Z,14.33
2018-11-28T16:46:43.395Z,15.13
2018-11-28T16:51:28.351Z,15.83
2018-11-28T16:56:13.269Z,14.40
2018-11-28T17:00:58.166Z,16.70
2018-11-28T17:05:43.074Z,13.37
2018-11-28T17:10:29.169Z,19.70
2018-11-28T17:15:15.275Z,16.10
2018-11-28T17:20:00.221Z,21.03
2018-11-28T17:24:45.072Z,19.73
2018-11-28T17:29:30.001Z,17.27
2018-11-28T17:34:15.060Z,18.23
2018-11-28T17:39:00.149Z,15.70
2018-11-28T17:43:45.087Z,16.40
2018-11-28T17:48:30.132Z,15.27
2018-11-28T17:53:15.668Z,15.60
2018-11-28T17:58:00.542Z,18.20
2018-11-28T18:02:45.645Z,17.57
2018-11-28T18:07:30.591Z,14.93
2018-11-28T18:12:15.842Z,15.37
2018-11-28T18:17:02.029Z,16.87
2018-11-28T18:21:46.858Z,15.03
2018-11-28T18:26:31.981Z,14.33
2018-11-28T18:31:16.872Z,17.87
2018-11-28T18:36:01.738Z,16.53
2018-11-28T18:40:46.693Z,13.90
2018-11-28T18:45:33.136Z,13.97
2018-11-28T18:50:18.187Z,13.53
2018-11-28T18:55:03.286Z,15.00
2018-11-28T18:59:48.174Z,16.43
2018-11-28T19:04:33.240Z,16.87
2018-11-28T19:09:23.150Z,13.60
2018-11-28T19:14:12.287Z,14.00
2018-11-28T19:18:53.482Z,16.13
2018-11-28T19:23:38.459Z,15.80
2018-11-28T19:28:23.493Z,18.97
2018-11-28T19:33:10.515Z,14.60
2018-11-28T19:37:55.435Z,17.10
2018-11-28T19:42:40.407Z,14.47
2018-11-28T19:47:25.360Z,13.63
2018-11-28T19:52:10.343Z,19.90
2018-11-28T19:56:55.596Z,21.50
2018-11-28T20:01:40.595Z,20.87
2018-11-28T20:06:25.773Z,19.23
2018-11-28T20:11:10.855Z,17.80
2018-11-28T20:15:55.936Z,17.33
2018-11-28T20:20:41.961Z,18.93
2018-11-28T20:25:26.956Z,27.30
2018-11-28T20:30:17.398Z,25.73
2018-11-28T20:35:03.119Z,24.23
2018-11-28T20:39:47.671Z,29.87
2018-11-28T20:44:32.828Z,25.70
2018-11-28T20:49:17.846Z,23.30
2018-11-28T20:54:02.771Z,19.73
2018-11-28T20:58:47.764Z,18.13
2018-11-28T21:03:32.766Z,28.63
2018-11-28T21:08:17.713Z,23.33
2018-11-28T21:13:02.606Z,20.63
2018-11-28T21:17:47.917Z,19.07
2018-11-28T21:22:33.051Z,27.57
2018-11-28T21:27:18.103Z,23.20
2018-11-28T21:32:03.198Z,18.03
2018-11-28T21:36:48.169Z,18.87
2018-11-28T21:41:33.049Z,21.57
2018-11-28T21:46:17.997Z,19.23
2018-11-28T21:51:02.927Z,19.00
2018-11-28T21:55:47.885Z,16.23
2018-11-28T22:00:32.872Z,17.87
2018-11-28T22:05:17.989Z,16.10
2018-11-28T22:10:02.979Z,18.60
2018-11-28T22:14:47.971Z,19.03
2018-11-28T22:19:32.909Z,16.63
2018-11-28T22:24:17.847Z,16.07
2018-11-28T22:29:02.801Z,16.40
2018-11-28T22:33:47.848Z,18.17
2018-11-28T22:38:32.679Z,16.33
2018-11-28T22:43:17.599Z,18.10
2018-11-28T22:48:02.474Z,20.70
2018-11-28T22:52:47.418Z,18.80
2018-11-28T22:57:32.227Z,15.90
2018-11-28T23:03:19.246Z,15.50
2018-11-28T23:08:05.192Z,15.93
2018-11-28T23:12:50.144Z,16.17
2018-11-28T23:17:34.984Z,19.33
2018-11-28T23:22:19.832Z,18.03
2018-11-28T23:27:04.704Z,16.93
2018-11-28T23:31:49.526Z,18.47
2018-11-28T23:36:34.381Z,19.97
2018-11-28T23:41:19.808Z,17.30
2018-11-28T23:46:04.690Z,16.50
2018-11-28T23:50:49.600Z,15.77
2018-11-28T23:55:34.359Z,14.93
